Time;durP1;ratioP1;P1;durP2;ratioP2;P2;SDS_P1;SDS_P2;PMS_P1;PMS_P2;Temp;Humidity;BMP_temperature;BMP_pressure;BME280_temperature;BME280_humidity;BME280_pressure;Samples;Min_cycle;Max_cycle;Signal;HPM_P1;HPM_P2
2023/08/14 00:00:21;;;;;;;1.83;0.10;;;15.00;99.90;;;;;;5054887;28;20033;-77
2023/08/14 00:02:47;;;;;;;1.48;0.30;;;15.00;99.90;;;;;;5054286;28;20021;-76
2023/08/14 00:05:12;;;;;;;1.75;0.05;;;15.10;99.90;;;;;;5052706;28;20109;-77
2023/08/14 00:07:38;;;;;;;1.73;0.20;;;15.10;99.90;;;;;;5053043;28;20048;-77
2023/08/14 00:10:04;;;;;;;4.40;0.30;;;15.10;99.90;;;;;;5051759;28;20029;-77
2023/08/14 00:12:29;;;;;;;1.40;0.50;;;15.00;99.90;;;;;;5051842;28;20025;-77
2023/08/14 00:14:58;;;;;;;1.20;0.30;;;15.00;99.90;;;;;;5051780;28;20017;-77
2023/08/14 00:17:23;;;;;;;0.88;0.30;;;15.00;99.90;;;;;;5053273;28;20021;-77
2023/08/14 00:19:49;;;;;;;1.90;0.10;;;15.00;99.90;;;;;;5052972;28;20033;-77
2023/08/14 00:22:14;;;;;;;3.42;0.60;;;14.90;99.90;;;;;;5053237;28;20365;-76
2023/08/14 00:24:40;;;;;;;5.38;0.50;;;15.60;99.90;;;;;;5052835;28;20017;-77
2023/08/14 00:27:06;;;;;;;4.13;0.28;;;14.90;99.90;;;;;;5052974;28;20369;-77
2023/08/14 00:29:31;;;;;;;3.03;0.32;;;14.90;99.90;;;;;;5053022;28;20021;-76
2023/08/14 00:31:57;;;;;;;2.33;0.32;;;14.80;99.90;;;;;;5051818;28;20017;-76
2023/08/14 00:34:22;;;;;;;2.25;0.40;;;14.80;99.90;;;;;;5052805;28;20044;-76
2023/08/14 00:36:48;;;;;;;1.38;0.63;;;14.80;99.90;;;;;;5052798;28;20036;-77
2023/08/14 00:39:14;;;;;;;1.08;0.20;;;14.70;99.90;;;;;;5052957;28;20021;-76
2023/08/14 00:41:39;;;;;;;1.40;0.35;;;14.80;99.90;;;;;;5052926;28;20024;-77
2023/08/14 00:44:05;;;;;;;1.42;0.68;;;14.70;99.90;;;;;;5052912;28;20388;-77
2023/08/14 00:46:31;;;;;;;0.82;0.40;;;14.70;99.90;;;;;;5052842;28;20074;-77
2023/08/14 00:48:57;;;;;;;2.38;0.55;;;14.70;99.90;;;;;;5051645;28;20025;-76
2023/08/14 00:51:23;;;;;;;4.10;0.82;;;14.70;99.90;;;;;;5052885;28;20049;-76
2023/08/14 00:53:50;;;;;;;0.68;0.30;;;14.60;99.90;;;;;;5052882;28;20108;-76
2023/08/14 00:56:18;;;;;;;1.60;0.50;;;14.60;99.90;;;;;;5051410;28;20341;-76
2023/08/14 00:58:43;;;;;;;3.47;0.35;;;14.50;99.90;;;;;;5053138;28;20024;-77
2023/08/14 01:01:09;;;;;;;1.75;0.38;;;14.50;99.90;;;;;;5053338;28;20041;-77
2023/08/14 01:03:36;;;;;;;0.63;0.50;;;14.50;99.90;;;;;;5053740;28;20017;-77
2023/08/14 01:06:01;;;;;;;1.80;0.30;;;14.50;99.90;;;;;;5053184;28;20067;-77
2023/08/14 01:08:28;;;;;;;2.60;0.30;;;15.00;99.90;;;;;;5053080;28;20040;-77
2023/08/14 01:11:07;;;;;;;1.33;0.50;;;14.50;99.90;;;;;;5053193;28;20370;-77
2023/08/14 01:13:54;;;;;;;9.98;1.20;;;14.40;99.90;;;;;;5052413;28;20025;-77
2023/08/14 01:16:24;;;;;;;1.88;0.47;;;14.40;99.90;;;;;;5053391;28;20536;-76
2023/08/14 01:18:53;;;;;;;0.70;0.40;;;14.40;99.90;;;;;;5056135;28;20052;-77
2023/08/14 01:21:39;;;;;;;3.28;1.00;;;14.40;99.90;;;;;;5057014;28;20103;-77
2023/08/14 01:24:40;;;;;;;8.55;1.40;;;14.40;99.90;;;;;;5056590;28;20126;-77
2023/08/14 01:27:07;;;;;;;1.45;0.85;;;14.40;99.90;;;;;;5056631;28;20482;-77
2023/08/14 01:29:33;;;;;;;1.88;0.70;;;14.50;99.90;;;;;;5056733;28;20029;-76
2023/08/14 01:31:59;;;;;;;3.42;0.88;;;14.40;99.90;;;;;;5056034;28;20028;-77
2023/08/14 01:34:25;;;;;;;1.38;0.75;;;14.50;99.90;;;;;;5055937;28;20036;-77
2023/08/14 01:37:15;;;;;;;2.25;0.68;;;14.40;99.90;;;;;;5056557;28;20021;-77
2023/08/14 01:39:48;;;;;;;3.80;1.02;;;14.40;99.90;;;;;;5036706;28;20025;-77
2023/08/14 01:42:30;;;;;;;6.15;1.58;;;14.40;99.90;;;;;;5035985;28;20612;-77
2023/08/14 01:45:01;;;;;;;2.63;0.70;;;14.30;99.90;;;;;;5035711;28;20021;-77
2023/08/14 01:47:30;;;;;;;0.85;0.50;;;14.20;99.90;;;;;;5036102;28;20022;-77
2023/08/14 01:49:56;;;;;;;;;;;14.30;99.90;;;;;;5034903;28;20025;-77
2023/08/14 01:52:22;;;;;;;4.18;0.82;;;14.20;99.90;;;;;;5035884;28;19912;-77
2023/08/14 01:54:47;;;;;;;2.83;1.00;;;14.30;99.90;;;;;;5034345;28;20045;-77
2023/08/14 01:57:13;;;;;;;1.45;1.10;;;14.20;99.90;;;;;;5035829;28;20021;-76
2023/08/14 01:59:44;;;;;;;3.47;1.20;;;14.20;99.90;;;;;;5035662;28;20034;-76
2023/08/14 02:02:12;;;;;;;3.25;1.15;;;14.20;99.90;;;;;;5035685;28;20130;-76
2023/08/14 02:04:38;;;;;;;3.45;0.60;;;14.10;99.90;;;;;;5035579;28;20032;-77
2023/08/14 02:07:05;;;;;;;1.40;0.80;;;14.10;99.90;;;;;;5034456;28;20377;-76
2023/08/14 02:09:32;;;;;;;1.98;0.70;;;14.10;99.90;;;;;;5034181;28;20388;-77
2023/08/14 02:11:58;;;;;;;3.63;1.30;;;14.00;99.90;;;;;;5035621;28;20033;-77
2023/08/14 02:14:23;;;;;;;2.30;1.02;;;14.00;99.90;;;;;;5035888;28;20041;-77
2023/08/14 02:16:49;;;;;;;3.42;1.17;;;14.00;99.90;;;;;;5035747;28;20025;-77
2023/08/14 02:19:14;;;;;;;1.27;0.70;;;14.00;99.90;;;;;;5036240;28;20104;-76
2023/08/14 02:21:40;;;;;;;3.97;0.93;;;14.00;99.90;;;;;;5036076;28;20113;-77
2023/08/14 02:24:06;;;;;;;3.13;1.08;;;13.90;99.90;;;;;;5035171;28;20056;-77
2023/08/14 02:26:32;;;;;;;6.60;1.27;;;13.90;99.90;;;;;;5035050;28;20021;-77
2023/08/14 02:28:57;;;;;;;5.60;1.15;;;13.90;99.90;;;;;;5035392;28;20111;-77
2023/08/14 02:31:23;;;;;;;4.55;1.30;;;13.80;99.90;;;;;;5036064;28;20400;-77
2023/08/14 02:33:48;;;;;;;4.35;1.73;;;13.80;99.90;;;;;;5034718;28;20392;-77
2023/08/14 02:36:14;;;;;;;5.30;1.50;;;13.80;99.90;;;;;;5035851;28;20024;-76
2023/08/14 02:38:39;;;;;;;5.30;1.50;;;13.70;99.90;;;;;;5035847;28;20380;-77
2023/08/14 02:41:06;;;;;;;3.08;0.98;;;13.70;99.90;;;;;;5034494;28;20480;-77
2023/08/14 02:43:32;;;;;;;4.57;2.08;;;13.70;99.90;;;;;;5035983;28;20018;-77
2023/08/14 02:45:58;;;;;;;2.22;1.08;;;13.70;99.90;;;;;;5034517;28;20028;-76
2023/08/14 02:48:23;;;;;;;2.80;1.35;;;13.60;99.90;;;;;;5035045;28;20025;-77
2023/08/14 02:50:49;;;;;;;4.18;1.20;;;13.70;99.90;;;;;;5034398;28;20079;-77
2023/08/14 02:53:15;;;;;;;3.15;1.40;;;13.70;99.90;;;;;;5035546;28;20026;-77
2023/08/14 02:55:40;;;;;;;1.65;0.90;;;13.60;99.90;;;;;;5034189;28;20030;-76
2023/08/14 02:58:06;;;;;;;3.03;1.08;;;13.60;99.90;;;;;;5035394;28;20085;-77
2023/08/14 03:00:31;;;;;;;3.85;0.73;;;13.60;99.90;;;;;;5033780;28;20500;-77
2023/08/14 03:02:57;;;;;;;3.13;1.40;;;13.60;99.90;;;;;;5035364;28;20034;-77
2023/08/14 03:05:22;;;;;;;1.60;0.90;;;13.60;99.90;;;;;;5035105;28;20010;-77
2023/08/14 03:07:48;;;;;;;1.65;1.30;;;13.60;99.90;;;;;;5035293;28;20026;-77
2023/08/14 03:10:13;;;;;;;2.13;1.17;;;13.60;99.90;;;;;;5034943;28;20044;-77
2023/08/14 03:12:39;;;;;;;4.40;1.63;;;13.60;99.90;;;;;;5033761;28;20092;-77
2023/08/14 03:15:06;;;;;;;2.67;1.60;;;13.60;99.90;;;;;;5034914;28;20164;-77
2023/08/14 03:17:31;;;;;;;3.25;1.85;;;13.70;99.90;;;;;;5035124;28;20104;-77
2023/08/14 03:19:57;;;;;;;3.33;1.52;;;13.70;99.90;;;;;;5035309;28;20053;-77
2023/08/14 03:22:23;;;;;;;3.25;1.40;;;13.70;99.90;;;;;;5034945;28;20533;-77
2023/08/14 03:24:48;;;;;;;4.63;1.98;;;13.80;99.90;;;;;;5034834;28;20108;-77
2023/08/14 03:27:16;;;;;;;8.50;2.22;;;13.80;99.90;;;;;;5033959;28;20400;-76
2023/08/14 03:29:41;;;;;;;4.55;2.05;;;13.80;99.90;;;;;;5034023;28;20025;-77
2023/08/14 03:32:07;;;;;;;4.72;2.30;;;13.80;99.90;;;;;;5033879;28;20033;-77
2023/08/14 03:34:32;;;;;;;4.25;1.92;;;13.80;99.90;;;;;;5033701;28;20017;-77
2023/08/14 03:36:58;;;;;;;6.45;2.50;;;13.80;99.90;;;;;;5033828;28;20025;-77
2023/08/14 03:39:24;;;;;;;4.80;1.92;;;13.80;99.90;;;;;;5033656;28;20021;-77
2023/08/14 03:41:49;;;;;;;3.90;2.22;;;13.80;99.90;;;;;;5033828;28;20029;-77
2023/08/14 03:44:15;;;;;;;3.15;1.75;;;13.80;99.90;;;;;;5032501;28;20040;-76
2023/08/14 03:46:43;;;;;;;7.03;2.45;;;13.80;99.90;;;;;;5032222;28;20041;-77
2023/08/14 03:49:09;;;;;;;3.85;1.20;;;13.80;99.90;;;;;;5033394;28;20393;-77
2023/08/14 03:51:35;;;;;;;5.68;2.10;;;13.80;99.90;;;;;;5033474;28;20021;-76
2023/08/14 03:54:00;;;;;;;4.57;1.77;;;13.80;99.90;;;;;;5032075;28;20022;-76
2023/08/14 03:56:26;;;;;;;5.75;2.47;;;13.80;99.90;;;;;;5033435;28;20060;-77
2023/08/14 03:58:51;;;;;;;4.78;1.98;;;13.80;99.90;;;;;;5033860;28;20116;-76
2023/08/14 04:01:17;;;;;;;5.93;2.55;;;13.80;99.90;;;;;;5033249;28;20025;-77
2023/08/14 04:03:42;;;;;;;4.85;2.45;;;13.80;99.90;;;;;;5033378;28;20473;-77
2023/08/14 04:06:08;;;;;;;5.03;1.98;;;13.80;99.90;;;;;;5032011;28;20026;-77
2023/08/14 04:08:34;;;;;;;5.97;2.83;;;13.80;99.90;;;;;;5033945;28;20022;-76
2023/08/14 04:10:59;;;;;;;4.40;2.17;;;13.80;99.90;;;;;;5033230;28;20033;-76
2023/08/14 04:13:26;;;;;;;3.17;2.03;;;13.80;99.90;;;;;;5033196;28;20025;-77
2023/08/14 04:15:59;;;;;;;6.80;2.38;;;13.80;99.90;;;;;;5031832;28;20036;-77
2023/08/14 04:18:28;;;;;;;4.95;2.38;;;13.90;99.90;;;;;;5033191;28;20387;-77
2023/08/14 04:20:53;;;;;;;5.22;2.38;;;13.90;99.90;;;;;;5032993;28;20554;-76
2023/08/14 04:23:19;;;;;;;3.53;2.28;;;13.90;99.90;;;;;;5033051;28;20025;-77
2023/08/14 04:25:45;;;;;;;4.60;2.75;;;14.00;99.90;;;;;;5031857;28;20033;-76
2023/08/14 04:28:10;;;;;;;6.72;2.53;;;14.00;99.90;;;;;;5033076;28;20053;-76
2023/08/14 04:30:36;;;;;;;5.00;2.85;;;14.00;99.90;;;;;;5033033;28;20026;-77
2023/08/14 04:33:01;;;;;;;3.05;2.10;;;14.10;99.90;;;;;;5033058;28;20044;-76
2023/08/14 04:35:27;;;;;;;4.53;2.13;;;14.10;99.90;;;;;;5033037;28;20381;-76
2023/08/14 04:37:52;;;;;;;5.45;2.42;;;14.10;99.90;;;;;;5032986;28;20056;-76
2023/08/14 04:40:18;;;;;;;5.28;2.22;;;14.10;99.90;;;;;;5031707;28;20021;-76
2023/08/14 04:42:44;;;;;;;5.63;2.78;;;14.10;99.90;;;;;;5032822;28;20393;-76
2023/08/14 04:45:12;;;;;;;5.97;2.45;;;14.10;99.90;;;;;;5033063;28;20037;-76
2023/08/14 04:47:38;;;;;;;4.35;2.50;;;14.10;99.90;;;;;;5032885;28;20036;-76
2023/08/14 04:50:04;;;;;;;5.05;2.03;;;14.20;99.90;;;;;;5033069;28;20029;-77
2023/08/14 04:52:30;;;;;;;5.10;2.80;;;14.20;99.90;;;;;;5035637;28;20029;-77
2023/08/14 04:54:56;;;;;;;4.90;1.88;;;14.30;99.90;;;;;;5036732;28;20021;-76
2023/08/14 04:57:21;;;;;;;6.00;2.72;;;14.30;99.90;;;;;;5036720;28;20041;-76
2023/08/14 04:59:47;;;;;;;5.68;2.15;;;14.40;99.90;;;;;;5035235;28;20024;-76
2023/08/14 05:02:12;;;;;;;7.03;3.00;;;14.50;99.90;;;;;;5036658;28;20021;-76
2023/08/14 05:04:38;;;;;;;6.65;2.65;;;14.60;99.90;;;;;;5035322;28;20025;-76
2023/08/14 05:07:03;;;;;;;4.20;2.60;;;14.60;99.90;;;;;;5036467;28;20017;-76
2023/08/14 05:09:29;;;;;;;4.75;2.72;;;14.70;99.90;;;;;;5036434;28;20029;-76
2023/08/14 05:11:56;;;;;;;4.30;2.55;;;14.80;99.90;;;;;;5036440;28;20049;-77
2023/08/14 05:14:22;;;;;;;6.22;3.05;;;14.80;99.90;;;;;;5036219;28;20030;-76
2023/08/14 05:16:48;;;;;;;6.57;2.60;;;14.90;99.90;;;;;;5036457;28;20485;-75
2023/08/14 05:19:13;;;;;;;5.57;2.95;;;15.00;99.90;;;;;;5036116;28;20021;-76
2023/08/14 05:21:39;;;;;;;5.30;2.72;;;15.30;99.90;;;;;;5036885;28;20026;-77
2023/08/14 05:24:05;;;;;;;5.35;3.20;;;15.10;99.90;;;;;;5036953;28;20025;-77
2023/08/14 05:26:30;;;;;;;6.60;3.05;;;15.20;99.90;;;;;;5036307;28;20018;-77
2023/08/14 05:28:56;;;;;;;4.78;2.88;;;15.20;99.90;;;;;;5036317;28;20022;-77
2023/08/14 05:31:22;;;;;;;5.38;2.88;;;15.30;99.90;;;;;;5036512;28;20032;-77
2023/08/14 05:33:47;;;;;;;5.70;2.67;;;15.40;99.90;;;;;;5036170;28;20025;-77
2023/08/14 05:36:13;;;;;;;7.82;3.22;;;15.50;99.90;;;;;;5034964;28;20022;-77
2023/08/14 05:38:39;;;;;;;4.55;2.50;;;15.50;99.90;;;;;;5035257;28;20048;-77
2023/08/14 05:41:04;;;;;;;5.70;2.80;;;15.50;99.90;;;;;;5036070;28;20036;-76
2023/08/14 05:43:30;;;;;;;4.68;2.55;;;16.30;99.90;;;;;;5035999;28;20435;-76
2023/08/14 05:45:55;;;;;;;6.07;2.38;;;15.70;99.90;;;;;;5035861;28;20021;-77
2023/08/14 05:48:22;;;;;;;5.07;2.60;;;15.70;99.90;;;;;;5035243;28;20162;-76
2023/08/14 05:50:51;;;;;;;4.32;2.33;;;15.80;99.90;;;;;;5035727;28;20017;-77
2023/08/14 05:53:17;;;;;;;6.25;3.05;;;15.80;99.90;;;;;;5035261;28;20504;-77
2023/08/14 05:55:42;;;;;;;5.43;2.55;;;15.80;99.90;;;;;;5035749;28;20022;-77
2023/08/14 05:58:08;;;;;;;7.28;3.58;;;15.90;99.90;;;;;;5035579;28;20091;-76
2023/08/14 06:00:35;;;;;;;7.05;2.97;;;15.90;99.90;;;;;;5035251;28;20484;-75
2023/08/14 06:03:02;;;;;;;5.70;2.60;;;16.00;99.90;;;;;;5034910;28;20025;-76
2023/08/14 06:05:28;;;;;;;6.10;3.33;;;16.10;99.90;;;;;;5036157;28;20017;-77
2023/08/14 06:07:54;;;;;;;6.72;4.00;;;16.20;99.90;;;;;;5036880;28;20388;-78
2023/08/14 06:10:21;;;;;;;7.40;3.05;;;16.20;99.90;;;;;;5038881;28;20435;-79
2023/08/14 06:12:49;;;;;;;4.53;2.95;;;16.30;99.90;;;;;;5036325;28;20025;-76
2023/08/14 06:15:15;;;;;;;;;;;16.40;99.90;;;;;;5038784;28;20033;-77
2023/08/14 06:17:42;;;;;;;4.55;3.03;;;;;;;;;;5037056;28;19937;-78
2023/08/14 06:20:10;;;;;;;5.50;3.00;;;16.60;99.90;;;;;;5038425;28;20404;-76
2023/08/14 06:22:40;;;;;;;7.78;3.08;;;16.70;99.90;;;;;;5035892;28;20022;-76
2023/08/14 06:25:06;;;;;;;7.25;3.67;;;16.90;99.90;;;;;;5035467;28;20022;-77
2023/08/14 06:27:31;;;;;;;9.57;3.63;;;17.00;99.90;;;;;;5034232;28;20030;-76
2023/08/14 06:29:57;;;;;;;6.75;3.40;;;17.10;99.90;;;;;;5035655;28;20128;-77
2023/08/14 06:32:22;;;;;;;6.30;3.25;;;17.40;99.90;;;;;;5035453;28;20083;-77
2023/08/14 06:34:48;;;;;;;7.25;4.05;;;17.30;99.90;;;;;;5034652;28;20036;-77
2023/08/14 06:37:13;;;;;;;5.20;3.00;;;17.40;99.90;;;;;;5035333;28;20088;-76
2023/08/14 06:39:39;;;;;;;5.93;3.33;;;17.50;99.90;;;;;;5034978;28;20025;-77
2023/08/14 06:42:05;;;;;;;6.80;3.58;;;17.60;99.90;;;;;;5034178;28;20501;-76
2023/08/14 06:44:30;;;;;;;8.38;3.45;;;17.70;99.90;;;;;;5034702;28;20056;-76
2023/08/14 06:46:56;;;;;;;8.65;3.83;;;17.90;99.90;;;;;;5034615;28;20049;-76
2023/08/14 06:49:21;;;;;;;5.28;3.30;;;18.00;99.90;;;;;;5034556;28;20473;-76
2023/08/14 06:51:47;;;;;;;6.43;3.17;;;18.10;99.90;;;;;;5034851;28;20029;-76
2023/08/14 06:54:13;;;;;;;9.48;3.30;;;18.20;99.90;;;;;;5034574;28;20397;-75
2023/08/14 06:56:38;;;;;;;7.88;3.75;;;18.30;99.90;;;;;;5034404;28;20477;-76
2023/08/14 06:59:04;;;;;;;5.90;3.55;;;18.40;99.90;;;;;;5034556;28;20041;-75
2023/08/14 07:01:29;;;;;;;5.13;3.20;;;18.50;99.90;;;;;;5034265;28;20033;-76
2023/08/14 07:03:55;;;;;;;5.68;3.05;;;18.50;99.90;;;;;;5034259;28;20481;-76
2023/08/14 07:06:21;;;;;;;6.13;2.83;;;18.70;99.90;;;;;;5034326;28;20025;-76
2023/08/14 07:08:46;;;;;;;7.60;4.40;;;18.60;99.90;;;;;;5032948;28;20548;-76
2023/08/14 07:11:12;;;;;;;5.63;2.70;;;18.70;99.90;;;;;;5034595;28;20029;-76
2023/08/14 07:13:37;;;;;;;4.82;2.70;;;18.70;99.90;;;;;;5033901;28;20109;-77
2023/08/14 07:16:03;;;;;;;6.15;3.17;;;18.70;99.90;;;;;;5034205;28;20033;-76
2023/08/14 07:18:28;;;;;;;8.35;3.20;;;18.80;99.90;;;;;;5034134;28;20029;-73
2023/08/14 07:20:56;;;;;;;6.43;2.75;;;18.80;99.90;;;;;;5034280;28;20037;-74
2023/08/14 07:23:22;;;;;;;5.00;3.43;;;19.00;99.90;;;;;;5034112;28;20013;-74
2023/08/14 07:25:52;;;;;;;6.30;3.28;;;19.30;99.90;;;;;;5033934;28;20393;-74
2023/08/14 07:28:18;;;;;;;7.50;2.83;;;19.50;99.90;;;;;;5033292;28;20046;-73
2023/08/14 07:30:44;;;;;;;4.32;2.70;;;19.80;99.90;;;;;;5033919;28;20029;-73
2023/08/14 07:33:10;;;;;;;10.05;3.20;;;20.10;99.90;;;;;;5034028;28;20477;-73
2023/08/14 07:35:37;;;;;;;6.07;2.60;;;20.40;99.90;;;;;;5033901;28;20400;-74
2023/08/14 07:38:03;;;;;;;4.38;2.00;;;20.60;99.90;;;;;;5033762;28;20481;-74
2023/08/14 07:40:29;;;;;;;6.82;2.35;;;20.70;99.90;;;;;;5033635;28;20033;-74
2023/08/14 07:42:54;;;;;;;3.20;1.40;;;20.80;99.90;;;;;;5033730;28;20029;-73
2023/08/14 07:45:20;;;;;;;3.40;1.60;;;20.80;99.90;;;;;;5033716;28;20024;-74
2023/08/14 07:47:46;;;;;;;5.05;1.52;;;20.60;99.90;;;;;;5033140;28;20108;-74
2023/08/14 07:50:11;;;;;;;3.58;1.50;;;20.50;99.90;;;;;;5032548;28;20480;-74
2023/08/14 07:52:37;;;;;;;4.75;1.77;;;20.40;99.90;;;;;;5031559;28;20080;-74
2023/08/14 07:55:03;;;;;;;4.72;1.58;;;20.50;99.90;;;;;;5033210;28;20030;-74
2023/08/14 07:57:29;;;;;;;6.00;1.60;;;20.60;99.90;;;;;;5033090;28;20082;-74
2023/08/14 07:59:55;;;;;;;3.42;1.42;;;20.70;99.90;;;;;;5033374;28;20029;-74
2023/08/14 08:02:21;;;;;;;2.22;0.82;;;20.90;99.90;;;;;;5032263;28;20484;-74
2023/08/14 08:04:47;;;;;;;7.00;1.33;;;21.00;99.90;;;;;;5033726;28;20030;-74
2023/08/14 08:07:13;;;;;;;2.80;1.15;;;21.10;99.90;;;;;;5032192;28;20519;-73
2023/08/14 08:09:38;;;;;;;2.08;0.50;;;21.20;99.90;;;;;;5033472;28;20072;-73
2023/08/14 08:12:04;;;;;;;1.27;0.32;;;21.30;99.90;;;;;;5032222;28;20102;-74
2023/08/14 08:14:30;;;;;;;3.63;1.30;;;21.40;99.90;;;;;;5033268;28;20029;-74
2023/08/14 08:16:56;;;;;;;2.95;0.70;;;21.50;99.90;;;;;;5033259;28;20032;-72
2023/08/14 08:19:21;;;;;;;0.90;0.13;;;21.60;99.90;;;;;;5031989;28;20025;-74
2023/08/14 08:21:47;;;;;;;2.40;0.80;;;21.70;99.90;;;;;;5033449;28;20076;-74
2023/08/14 08:24:12;;;;;;;1.95;0.25;;;21.80;99.90;;;;;;5033287;28;20477;-74
2023/08/14 08:26:38;;;;;;;2.28;0.10;;;22.00;99.90;;;;;;5036470;28;20109;-74
2023/08/14 08:29:05;;;;;;;1.80;0.20;;;22.00;99.90;;;;;;5039959;28;20021;-73
2023/08/14 08:31:31;;;;;;;2.72;0.43;;;22.10;99.90;;;;;;5039795;28;20068;-73
2023/08/14 08:33:57;;;;;;;4.85;0.85;;;22.10;99.90;;;;;;5039724;28;20432;-74
2023/08/14 08:36:23;;;;;;;3.80;1.02;;;22.20;99.90;;;;;;5039864;28;20025;-74
2023/08/14 08:38:49;;;;;;;2.30;0.45;;;22.30;99.90;;;;;;5039835;28;20033;-75
2023/08/14 08:41:22;;;;;;;2.30;0.35;;;22.40;99.90;;;;;;5039863;28;20025;-75
2023/08/14 08:44:08;;;;;;;5.47;1.55;;;22.50;99.90;;;;;;5039838;28;20041;-75
2023/08/14 08:46:41;;;;;;;5.10;1.10;;;22.60;99.90;;;;;;5022192;28;20026;-75
2023/08/14 08:49:08;;;;;;;6.07;1.35;;;22.70;99.90;;;;;;5039022;28;20113;-77
2023/08/14 08:51:34;;;;;;;5.00;1.10;;;22.70;99.90;;;;;;5038054;28;20033;-78
2023/08/14 08:54:00;;;;;;;5.80;1.05;;;22.80;99.90;;;;;;5039866;28;20022;-76
2023/08/14 08:56:26;;;;;;;4.00;0.90;;;22.90;99.90;;;;;;5038756;28;20043;-75
2023/08/14 08:58:52;;;;;;;3.80;0.65;;;23.00;99.90;;;;;;5039992;28;20099;-78
2023/08/14 09:01:19;;;;;;;4.70;1.40;;;23.00;99.90;;;;;;5038028;28;20112;-75
2023/08/14 09:03:45;;;;;;;6.53;1.05;;;23.10;99.90;;;;;;5039912;28;20083;-76
2023/08/14 09:06:11;;;;;;;4.82;0.88;;;23.10;99.90;;;;;;5040704;28;20468;-76
2023/08/14 09:08:38;;;;;;;9.15;0.75;;;23.20;99.90;;;;;;5040432;28;20458;-76
2023/08/14 09:11:03;;;;;;;5.35;0.55;;;23.50;99.90;;;;;;5040134;28;20029;-76
2023/08/14 09:13:29;;;;;;;3.13;0.30;;;23.50;99.90;;;;;;5039993;28;20079;-76
2023/08/14 09:15:54;;;;;;;1.95;1.00;;;23.60;99.90;;;;;;5039326;28;20033;-75
2023/08/14 09:18:20;;;;;;;5.65;1.33;;;23.80;99.90;;;;;;5039629;28;20361;-75
2023/08/14 09:20:46;;;;;;;5.55;0.15;;;23.80;99.90;;;;;;5039454;28;20369;-76
2023/08/14 09:23:12;;;;;;;6.93;0.70;;;23.90;99.90;;;;;;5039656;28;20435;-74
2023/08/14 09:25:40;;;;;;;4.78;0.35;;;24.00;99.90;;;;;;5037918;28;20013;-75
2023/08/14 09:28:08;;;;;;;7.60;1.08;;;24.00;99.90;;;;;;5038011;28;20013;-75
2023/08/14 09:30:36;;;;;;;3.00;0.15;;;24.00;99.90;;;;;;5039381;28;20025;-74
2023/08/14 09:33:03;;;;;;;7.78;0.73;;;24.10;99.90;;;;;;5039162;28;20389;-74
2023/08/14 09:35:28;;;;;;;4.03;0.43;;;24.30;99.90;;;;;;5039140;28;20026;-74
2023/08/14 09:37:54;;;;;;;3.00;0.43;;;24.30;99.90;;;;;;5035904;28;20022;-74
2023/08/14 09:40:20;;;;;;;4.32;0.95;;;24.40;99.90;;;;;;5036012;28;20064;-76
2023/08/14 09:42:48;;;;;;;2.53;0.45;;;24.50;99.90;;;;;;5036577;28;20026;-77
2023/08/14 09:45:15;;;;;;;3.95;0.98;;;24.60;99.90;;;;;;5035078;28;20024;-77
2023/08/14 09:47:45;;;;;;;3.05;0.70;;;24.80;99.90;;;;;;5035057;28;20021;-76
2023/08/14 09:50:14;;;;;;;2.20;0.30;;;24.80;99.90;;;;;;5035199;28;20061;-73
2023/08/14 09:52:40;;;;;;;5.25;0.55;;;25.00;99.90;;;;;;5035942;28;20477;-73
2023/08/14 09:55:06;;;;;;;5.85;0.93;;;25.10;99.90;;;;;;5034590;28;20104;-73
2023/08/14 09:57:33;;;;;;;2.50;0.55;;;25.20;99.90;;;;;;5035661;28;20060;-74
2023/08/14 09:59:59;;;;;;;3.90;0.20;;;25.30;99.90;;;;;;5035373;28;20484;-73
2023/08/14 10:02:26;;;;;;;5.43;0.50;;;25.40;99.90;;;;;;5034741;28;20025;-73
2023/08/14 10:04:52;;;;;;;4.07;0.25;;;25.30;99.90;;;;;;5035625;28;20018;-74
2023/08/14 10:07:19;;;;;;;3.63;0.40;;;25.30;99.90;;;;;;5035656;28;20018;-74
2023/08/14 10:09:51;;;;;;;2.83;0.55;;;25.30;99.90;;;;;;5035477;28;20084;-74
2023/08/14 10:12:23;;;;;;;3.38;0.60;;;25.20;99.90;;;;;;5034516;28;20025;-73
2023/08/14 10:15:08;;;;;;;1.45;0.35;;;25.20;99.90;;;;;;5035432;28;20053;-74
2023/08/14 10:17:45;;;;;;;2.67;0.10;;;25.40;99.90;;;;;;5035410;28;20034;-74
2023/08/14 10:20:15;;;;;;;0.95;0.40;;;25.50;99.90;;;;;;5035842;28;20519;-74
2023/08/14 10:22:41;;;;;;;5.30;0.50;;;25.60;99.90;;;;;;5033894;28;20025;-73
2023/08/14 10:25:08;;;;;;;1.45;0.35;;;25.60;99.90;;;;;;5035063;28;20017;-74
2023/08/14 10:27:34;;;;;;;3.25;0.30;;;25.60;99.90;;;;;;5035842;28;20433;-73
2023/08/14 10:30:00;;;;;;;2.70;0.40;;;25.40;99.90;;;;;;5035138;28;20079;-74
2023/08/14 10:32:27;;;;;;;2.53;0.50;;;25.50;99.90;;;;;;5035630;28;20108;-74
2023/08/14 10:34:54;;;;;;;9.23;1.35;;;25.70;99.90;;;;;;5034949;28;20021;-74
2023/08/14 10:37:28;;;;;;;3.85;0.60;;;25.80;99.90;;;;;;5035155;28;20460;-74
2023/08/14 10:40:13;;;;;;;4.05;0.38;;;26.00;99.90;;;;;;5034940;28;20036;-73
2023/08/14 10:42:43;;;;;;;3.90;0.20;;;26.20;99.90;;;;;;5033876;28;20107;-73
2023/08/14 10:45:08;;;;;;;6.22;0.47;;;26.10;99.90;;;;;;5033494;28;20017;-74
2023/08/14 10:47:38;;;;;;;3.60;0.22;;;26.20;99.90;;;;;;5033472;28;20455;-74
2023/08/14 10:50:18;;;;;;;1.30;0.00;;;26.30;99.90;;;;;;5032989;28;20120;-73
2023/08/14 10:52:46;;;;;;;2.95;0.10;;;26.20;99.90;;;;;;5034752;28;20080;-74
2023/08/14 10:55:16;;;;;;;3.95;0.43;;;26.20;99.90;;;;;;5034601;28;20018;-77
2023/08/14 10:57:42;;;;;;;0.73;0.30;;;26.30;99.90;;;;;;5035347;28;20079;-76
2023/08/14 11:00:22;;;;;;;2.80;0.05;;;26.30;99.90;;;;;;5033541;28;20037;-77
2023/08/14 11:03:05;;;;;;;2.78;0.13;;;26.20;99.90;;;;;;5034588;28;20025;-76
2023/08/14 11:05:38;;;;;;;0.68;0.10;;;26.10;99.90;;;;;;5034933;28;20359;-77
2023/08/14 11:08:06;;;;;;;2.03;0.00;;;26.30;99.90;;;;;;5034840;28;20021;-75
2023/08/14 11:10:34;;;;;;;;;;;26.40;99.90;;;;;;5035279;28;20436;-77
2023/08/14 11:13:00;;;;;;;2.15;0.20;;;26.50;99.90;;;;;;5036919;28;19913;-78
2023/08/14 11:15:26;;;;;;;3.47;0.20;;;26.50;99.90;;;;;;5035735;28;20555;-77
2023/08/14 11:17:51;;;;;;;2.35;0.00;;;26.60;99.90;;;;;;5036257;28;20021;-77
2023/08/14 11:20:17;;;;;;;2.55;0.25;;;26.80;99.70;;;;;;5034573;28;20060;-75
2023/08/14 11:22:44;;;;;;;1.92;0.20;;;27.00;99.60;;;;;;5033977;28;20101;-76
2023/08/14 11:25:13;;;;;;;2.13;0.38;;;27.10;99.20;;;;;;5033990;28;20096;-76
2023/08/14 11:27:38;;;;;;;2.10;0.22;;;27.40;99.00;;;;;;5034128;28;20094;-75
2023/08/14 11:30:04;;;;;;;2.50;0.00;;;27.70;98.30;;;;;;5033324;28;20109;-75
2023/08/14 11:32:30;;;;;;;2.55;0.05;;;27.90;97.70;;;;;;5033945;28;20029;-77
2023/08/14 11:34:56;;;;;;;1.27;0.00;;;27.80;97.30;;;;;;5034707;28;20040;-76
2023/08/14 11:37:21;;;;;;;1.08;0.08;;;27.90;97.40;;;;;;5034145;28;20033;-76
2023/08/14 11:39:47;;;;;;;2.20;0.20;;;27.90;97.10;;;;;;5033620;28;20022;-79
2023/08/14 11:42:12;;;;;;;1.92;0.00;;;28.10;97.20;;;;;;5035054;28;20362;-76
2023/08/14 11:44:38;;;;;;;3.60;0.30;;;28.10;96.00;;;;;;5034437;28;20029;-76
2023/08/14 11:47:06;;;;;;;1.13;0.00;;;28.30;96.30;;;;;;5035076;28;20101;-77
2023/08/14 11:49:36;;;;;;;1.27;0.00;;;28.50;95.90;;;;;;5034219;28;20029;-76
2023/08/14 11:52:05;;;;;;;2.35;0.10;;;28.50;96.10;;;;;;5034432;28;20013;-78
2023/08/14 11:54:32;;;;;;;1.65;0.10;;;28.50;94.80;;;;;;5034166;28;20022;-77
2023/08/14 11:57:02;;;;;;;3.17;0.38;;;28.50;94.40;;;;;;5034091;28;20092;-75
2023/08/14 11:59:28;;;;;;;3.03;0.22;;;28.50;95.60;;;;;;5033510;28;20026;-75
2023/08/14 12:01:56;;;;;;;2.30;0.10;;;28.60;95.20;;;;;;5032738;28;20025;-76
2023/08/14 12:04:22;;;;;;;1.80;0.00;;;28.80;95.20;;;;;;5033333;28;20028;-75
2023/08/14 12:06:47;;;;;;;3.45;0.00;;;28.70;95.00;;;;;;5033402;28;20469;-74
2023/08/14 12:09:13;;;;;;;3.75;0.10;;;28.90;94.60;;;;;;5032068;28;20129;-75
2023/08/14 12:11:39;;;;;;;4.28;0.00;;;29.00;94.20;;;;;;5033723;28;20079;-74
2023/08/14 12:14:06;;;;;;;1.52;0.00;;;29.00;94.50;;;;;;5033343;28;20481;-75
2023/08/14 12:16:32;;;;;;;1.05;0.00;;;28.90;93.70;;;;;;5033248;28;20392;-76
2023/08/14 12:18:57;;;;;;;1.73;0.20;;;28.90;95.30;;;;;;5033776;28;20101;-75
2023/08/14 12:21:29;;;;;;;1.30;0.00;;;28.50;93.60;;;;;;5033329;28;20056;-76
2023/08/14 12:23:55;;;;;;;0.73;0.00;;;28.10;94.20;;;;;;5032713;28;20021;-77
2023/08/14 12:26:21;;;;;;;2.08;0.00;;;28.10;95.20;;;;;;5036178;28;20539;-79
2023/08/14 12:28:47;;;;;;;0.95;0.13;;;28.10;93.80;;;;;;5032924;28;20017;-77
2023/08/14 12:31:14;;;;;;;2.05;0.10;;;28.30;95.50;;;;;;5032889;28;20022;-78
2023/08/14 12:33:41;;;;;;;2.20;0.00;;;28.80;95.70;;;;;;5033274;28;20026;-75
2023/08/14 12:36:08;;;;;;;1.48;0.30;;;29.10;93.60;;;;;;5033403;28;20519;-76
2023/08/14 12:38:34;;;;;;;1.52;0.00;;;29.20;93.90;;;;;;5033136;28;20029;-76
2023/08/14 12:40:59;;;;;;;1.02;0.00;;;29.40;92.90;;;;;;5032121;28;20068;-77
2023/08/14 12:43:25;;;;;;;1.48;0.00;;;29.50;93.40;;;;;;5033505;28;20029;-76
2023/08/14 12:45:50;;;;;;;2.28;0.20;;;29.70;92.10;;;;;;5033409;28;20469;-75